Glencoe, OH (43928)

9:22 AM EDT on May 23, 2015 (GMT -0400)
Shadyside, Ohio | | Change Station
CLOSE
Current Station
Personal Weather Station
Location: Shadyside, OH
Elevation: 669 ft
Nearby Weather Stations

Elev 669 ft 39.98 °N, 80.74 °W | Updated 1 second ago

Clear
Clear
55.0 °F
Feels Like 55.0 °F
N
0.0
Wind Variable Wind from East
Gusts 1.0 mph

Today
High -- | Low -- °F
--% Chance of Precip.
Yesterday
High -- | Low -- °F
Precip. -- in
6:01 AM 8:39 PM
Waxing Crescent, 30% visible
Pressure 30.46 in
Visibility 10.0 miles
Clouds Clear
Dew Point 48 °F
Humidity 76%
Rainfall 0.00 in
Snow Depth Not available.
UV 4 out of 12
Pollen 9.00 out of 12
Air Quality Not available.
Flu Activity Local Activity
METAR KAFJ 231315Z AUTO 00000KT 10SM CLR 12/03 A3046 RMK AO1

More Conditions Fewer Conditions

Pressure 30.46 in
Visibility 10.0 miles
Clouds Clear
Dew Point 48 °F
Humidity 76%
Rainfall 0.00 in
Snow Depth Not available.
UV 4 out of 12
Pollen 9.00 out of 12
Air Quality Not available.
Flu Activity Local Activity
METAR KAFJ 231315Z AUTO 00000KT 10SM CLR 12/03 A3046 RMK AO1

More Conditions Fewer Conditions

10-Day Weather Forecast

Almanac

Astronomy

May. 23, 2015 Rise Set
Actual Time
Civil Twilight
Nautical Twilight
Astronomical Twilight
Moon
Length of Visible Light
Length of Day
Tomorrow will be .
, % of the Moon is Illuminated

Today's Extremes

State Highs State Lows

Community

WunderPhotos

Upload Photos

1,823,458 photos uploaded!

WunderBlogs® & News

Nearby

Air Quality

  Air Quality AQ Index Pollutant
Not available.

Snow Depth

Station Depth Elevation

Earthquake Activity

City Distance Mag. Time & Date
Minimum magnitude displayed is 2.5.

Coastal Water Temperatures

Place Temperature

Stations

Nearby Weather Stations

Station Location Temp. Windchill Dew Point Humidity Wind Precip. Elev Updated Type